33°C Temp
10°C Dewpoint
24% Humidity
Temperature
14 KM/H
9 MPH
8 KTS
220°
South West

Wind Speed
Clear
Conditions
Pressure 1012.92 (hPa) - 29.91 (in)
Visibility 6.2 (mi) - 10.0 (km)

Current Conditions
LIPR
Location 4(km)
Metar :LIPR 280920Z 22008KT 170V260 CAVOK 33/10 Q1013
Wed 28th July 11:20 am

Airport
  Metar Aviation API Data Provided by https://www.checkwx.com/ PHP scripts by weather34.com ©2021